Columbia, Missouri
Current Conditions -  °F | °C
As of 12:54 PM on Friday 21 Nov 2014 (Local Time) from KCOU Reporting Station
Overcast Overcast  
Wind Chill: 33°   Ceiling: 2500
Heat Index: 40°   Visibility: 10mi
Dew Point: 22°   Wind: 13mph
Humidity: 49%   Direction: 130°SE
Pressure: 30.25"   Gusts: NA
Location:  38.95°N, 92.33°W
Report Text: KCOU 211854Z 13011KT 10SM OVC025 04/M06 A3025 RMK AO2 SLP251 T00441056
Loading
Personal Weather Stations






























Interactive Weather Map New forecast layout! Learn more

10-Day Weather Forecast

Advertisements
Track Severe Weather on mobile